createdAt,value
2023-03-11T00:02:30.796Z,5.32
2023-03-11T00:05:18.470Z,4.85
2023-03-11T00:08:05.547Z,5.25
2023-03-11T00:11:00.581Z,6.35
2023-03-11T00:13:45.433Z,5.22
2023-03-11T00:16:30.400Z,5.55
2023-03-11T00:19:15.412Z,5.07
2023-03-11T00:22:02.249Z,4.85
2023-03-11T00:24:47.073Z,5.47
2023-03-11T00:27:31.979Z,5.07
2023-03-11T00:30:18.683Z,5.68
2023-03-11T00:33:04.404Z,5.15
2023-03-11T00:35:49.897Z,4.70
2023-03-11T00:38:34.719Z,4.72
2023-03-11T00:41:20.928Z,4.07
2023-03-11T00:44:06.186Z,4.85
2023-03-11T00:46:51.217Z,3.88
2023-03-11T00:49:36.894Z,5.90
2023-03-11T00:52:21.768Z,4.55
2023-03-11T00:55:08.060Z,4.15
2023-03-11T00:57:54.909Z,5.32
2023-03-11T01:00:40.126Z,4.72
2023-03-11T01:03:24.989Z,4.40
2023-03-11T01:06:10.021Z,4.40
2023-03-11T01:08:55.437Z,4.40
2023-03-11T01:11:40.143Z,5.45
2023-03-11T01:14:25.190Z,5.45
2023-03-11T01:17:10.258Z,4.82
2023-03-11T01:19:55.284Z,6.20
2023-03-11T01:22:40.286Z,6.15
2023-03-11T01:25:25.898Z,5.20
2023-03-11T01:28:11.368Z,6.10
2023-03-11T01:30:56.603Z,6.35
2023-03-11T01:33:42.182Z,5.68
2023-03-11T01:36:27.068Z,5.10
2023-03-11T01:39:11.972Z,5.93
2023-03-11T01:41:56.956Z,6.15
2023-03-11T01:44:42.504Z,5.82
2023-03-11T01:47:36.743Z,6.07
2023-03-11T01:50:22.713Z,6.07
2023-03-11T01:53:09.364Z,5.70
2023-03-11T01:55:55.498Z,6.10
2023-03-11T01:58:46.596Z,6.85
2023-03-11T02:01:35.979Z,7.30
2023-03-11T02:04:27.113Z,7.35
2023-03-11T02:07:14.487Z,7.95
2023-03-11T02:09:59.851Z,7.38
2023-03-11T02:12:46.570Z,8.63
2023-03-11T02:15:31.639Z,7.22
2023-03-11T02:18:22.117Z,7.15
2023-03-11T02:21:16.546Z,7.10
2023-03-11T02:24:17.496Z,6.95
2023-03-11T02:27:12.036Z,7.50
2023-03-11T02:30:02.547Z,7.18
2023-03-11T02:32:49.416Z,6.35
2023-03-11T02:35:35.854Z,7.38
2023-03-11T02:38:20.806Z,6.65
2023-03-11T02:41:06.693Z,6.18
2023-03-11T02:43:52.817Z,6.57
2023-03-11T02:46:42.628Z,7.18
2023-03-11T02:49:29.858Z,5.97
2023-03-11T02:52:15.232Z,7.10
2023-03-11T02:55:01.275Z,7.45
2023-03-11T02:57:50.798Z,6.28
2023-03-11T03:00:36.468Z,7.38
2023-03-11T03:03:23.154Z,6.75
2023-03-11T03:06:09.184Z,7.30
2023-03-11T03:08:55.962Z,7.45
2023-03-11T03:11:41.749Z,6.30
2023-03-11T03:14:28.212Z,6.63
2023-03-11T03:17:13.536Z,6.90
2023-03-11T03:19:58.993Z,7.13
2023-03-11T03:22:44.832Z,7.30
2023-03-11T03:25:30.260Z,7.30
2023-03-11T03:28:18.931Z,6.40
2023-03-11T03:31:12.458Z,7.10
2023-03-11T03:33:59.222Z,7.07
2023-03-11T03:36:44.317Z,7.20
2023-03-11T03:39:30.786Z,7.03
2023-03-11T03:42:15.935Z,8.00
2023-03-11T03:45:01.109Z,6.72
2023-03-11T03:47:45.938Z,7.47
2023-03-11T03:50:31.167Z,7.32
2023-03-11T03:53:15.966Z,6.22
2023-03-11T03:56:08.862Z,7.57
2023-03-11T03:58:54.207Z,6.50
2023-03-11T04:01:39.128Z,6.57
2023-03-11T04:04:24.269Z,7.18
2023-03-11T04:07:09.350Z,7.38
2023-03-11T04:09:54.267Z,8.27
2023-03-11T04:12:39.120Z,8.07
2023-03-11T04:15:24.176Z,6.47
2023-03-11T04:18:09.330Z,7.05
2023-03-11T04:20:54.424Z,6.57
2023-03-11T04:23:39.353Z,7.13
2023-03-11T04:26:24.576Z,6.50
2023-03-11T04:29:09.830Z,7.30
2023-03-11T04:31:54.894Z,6.65
2023-03-11T04:34:41.059Z,7.28
2023-03-11T04:37:29.822Z,6.43
2023-03-11T04:40:15.482Z,5.72
2023-03-11T04:43:00.411Z,5.75
2023-03-11T04:45:45.743Z,5.60
2023-03-11T04:48:30.738Z,4.95
2023-03-11T04:51:15.930Z,5.15
2023-03-11T04:54:00.974Z,3.95
2023-03-11T04:56:46.136Z,4.72
2023-03-11T04:59:31.151Z,4.00
2023-03-11T05:02:16.348Z,4.75
2023-03-11T05:05:01.674Z,4.50
2023-03-11T05:07:47.505Z,4.60
2023-03-11T05:10:33.736Z,4.30
2023-03-11T05:13:19.574Z,4.70
2023-03-11T05:16:05.209Z,3.63
2023-03-11T05:18:50.235Z,4.60
2023-03-11T05:21:35.440Z,3.88
2023-03-11T05:24:20.537Z,3.78
2023-03-11T05:27:05.688Z,4.15
2023-03-11T05:29:50.809Z,4.18
2023-03-11T05:32:36.520Z,3.80
2023-03-11T05:35:21.890Z,3.88
2023-03-11T05:38:08.034Z,3.83
2023-03-11T05:40:53.972Z,3.15
2023-03-11T05:43:38.967Z,4.05
2023-03-11T05:46:24.105Z,3.55
2023-03-11T05:49:08.952Z,4.47
2023-03-11T05:51:58.864Z,4.00
2023-03-11T05:54:44.247Z,3.78
2023-03-11T05:57:29.408Z,3.08
2023-03-11T06:00:14.733Z,3.72
2023-03-11T06:03:00.267Z,3.05
2023-03-11T06:05:46.701Z,4.43
2023-03-11T06:08:34.315Z,3.80
2023-03-11T06:11:19.544Z,3.67
2023-03-11T06:14:06.294Z,3.67
2023-03-11T06:16:51.425Z,3.10
2023-03-11T06:19:36.319Z,3.25
2023-03-11T06:22:21.430Z,3.67
2023-03-11T06:25:06.942Z,3.33
2023-03-11T06:27:53.274Z,3.70
2023-03-11T06:30:38.086Z,3.65
2023-03-11T06:33:24.014Z,3.30
2023-03-11T06:36:10.885Z,2.90
2023-03-11T06:38:56.652Z,3.03
2023-03-11T06:41:42.246Z,3.58
2023-03-11T06:44:27.407Z,3.67
2023-03-11T06:47:12.625Z,3.67
2023-03-11T06:49:57.594Z,3.28
2023-03-11T06:52:42.744Z,3.65
2023-03-11T06:55:27.749Z,3.53
2023-03-11T06:58:13.571Z,3.67
2023-03-11T07:01:02.536Z,3.25
2023-03-11T07:03:48.946Z,3.17
2023-03-11T07:06:33.982Z,3.80
2023-03-11T07:09:18.778Z,3.58
2023-03-11T07:12:06.365Z,3.53
2023-03-11T07:14:56.122Z,4.03
2023-03-11T07:17:40.967Z,3.25
2023-03-11T07:20:26.266Z,3.88
2023-03-11T07:23:12.764Z,4.15
2023-03-11T07:25:57.773Z,4.05
2023-03-11T07:28:42.925Z,3.42
2023-03-11T07:31:30.411Z,3.75
2023-03-11T07:34:17.660Z,3.55
2023-03-11T07:37:03.632Z,3.83
2023-03-11T07:39:49.326Z,3.75
2023-03-11T07:42:35.717Z,3.95
2023-03-11T07:45:20.829Z,3.90
2023-03-11T07:48:05.732Z,4.20
2023-03-11T07:51:00.553Z,3.85
2023-03-11T07:53:46.224Z,4.03
2023-03-11T07:56:34.239Z,3.38
2023-03-11T07:59:21.326Z,4.63
2023-03-11T08:02:06.879Z,4.18
2023-03-11T08:04:52.374Z,3.47
2023-03-11T08:07:37.314Z,4.25
2023-03-11T08:10:28.996Z,4.15
2023-03-11T08:13:17.682Z,4.13
2023-03-11T08:16:09.168Z,4.35
2023-03-11T08:18:58.903Z,3.50
2023-03-11T08:21:53.914Z,3.63
2023-03-11T08:24:41.223Z,4.07
2023-03-11T08:27:28.603Z,3.97
2023-03-11T08:30:15.135Z,4.28
2023-03-11T08:33:00.552Z,3.88
2023-03-11T08:35:45.760Z,3.70
2023-03-11T08:38:31.080Z,3.42
2023-03-11T08:41:16.278Z,3.83
2023-03-11T08:44:01.752Z,4.07
2023-03-11T08:46:47.677Z,3.40
2023-03-11T08:49:34.054Z,4.05
2023-03-11T08:52:19.248Z,3.90
2023-03-11T08:55:05.124Z,3.97
2023-03-11T08:57:51.100Z,3.70
2023-03-11T09:00:36.133Z,3.50
2023-03-11T09:03:21.473Z,3.88
2023-03-11T09:06:11.099Z,4.22
2023-03-11T09:08:57.609Z,3.40
2023-03-11T09:11:42.838Z,3.42
2023-03-11T09:14:27.987Z,4.05
2023-03-11T09:17:14.691Z,4.25
2023-03-11T09:20:00.129Z,3.67
2023-03-11T09:22:45.662Z,4.47
2023-03-11T09:25:30.567Z,4.10
2023-03-11T09:28:15.842Z,5.00
2023-03-11T09:31:01.001Z,3.90
2023-03-11T09:33:47.458Z,4.43
2023-03-11T09:36:32.371Z,4.22
2023-03-11T09:39:17.413Z,4.90
2023-03-11T09:42:11.393Z,4.50
2023-03-11T09:45:04.285Z,4.57
2023-03-11T09:48:01.668Z,4.88
2023-03-11T09:51:10.428Z,4.40
2023-03-11T09:54:03.639Z,4.15
2023-03-11T09:56:49.029Z,3.90
2023-03-11T09:59:37.191Z,4.25
2023-03-11T10:02:26.671Z,4.40
2023-03-11T10:05:20.594Z,3.47
2023-03-11T10:08:33.273Z,4.15
2023-03-11T10:11:30.893Z,4.18
2023-03-11T10:14:40.257Z,4.70
2023-03-11T10:17:43.976Z,4.35
2023-03-11T10:20:51.121Z,4.43
2023-03-11T10:24:10.257Z,3.67
2023-03-11T10:27:01.994Z,3.45
2023-03-11T10:30:02.753Z,3.65
2023-03-11T10:32:58.536Z,3.30
2023-03-11T10:35:48.049Z,3.45
2023-03-11T10:38:38.386Z,4.15
2023-03-11T10:41:26.409Z,3.42
2023-03-11T10:44:17.367Z,3.40
2023-03-11T10:47:03.378Z,3.70
2023-03-11T10:49:48.794Z,3.65
2023-03-11T10:52:44.864Z,3.70
2023-03-11T10:55:30.170Z,3.30
2023-03-11T10:58:19.245Z,3.40
2023-03-11T11:01:17.947Z,3.40
2023-03-11T11:04:03.958Z,3.15
2023-03-11T11:06:49.159Z,2.80
2023-03-11T11:09:33.927Z,3.33
2023-03-11T11:12:21.264Z,3.20
2023-03-11T11:15:07.227Z,3.33
2023-03-11T11:17:55.885Z,3.83
2023-03-11T11:20:59.574Z,3.13
2023-03-11T11:23:50.160Z,2.67
2023-03-11T11:26:35.632Z,2.85
2023-03-11T11:29:20.487Z,2.42
2023-03-11T11:32:26.159Z,2.67
2023-03-11T11:35:14.756Z,2.40
2023-03-11T11:38:05.896Z,2.95
2023-03-11T11:40:52.342Z,2.78
2023-03-11T11:44:02.367Z,2.53
2023-03-11T11:46:57.236Z,2.72
2023-03-11T11:49:51.925Z,2.92
2023-03-11T11:52:47.343Z,2.90
2023-03-11T11:55:33.614Z,2.85
2023-03-11T11:58:19.300Z,2.85
2023-03-11T12:01:14.546Z,2.58
2023-03-11T12:04:28.464Z,2.78
2023-03-11T12:07:31.927Z,2.78
2023-03-11T12:10:39.290Z,2.17
2023-03-11T12:13:57.569Z,2.58
2023-03-11T12:17:01.982Z,2.40
2023-03-11T12:23:11.196Z,2.60
2023-03-11T12:26:22.041Z,2.67
2023-03-11T12:29:19.850Z,2.47
2023-03-11T12:32:06.581Z,2.30
2023-03-11T12:34:54.815Z,3.08
2023-03-11T12:37:46.934Z,2.13
2023-03-11T12:40:58.637Z,2.47
2023-03-11T12:43:47.800Z,2.70
2023-03-11T12:47:11.656Z,2.00
2023-03-11T12:50:34.917Z,2.38
2023-03-11T12:53:21.230Z,2.33
2023-03-11T12:56:25.288Z,2.30
2023-03-11T12:59:41.792Z,2.75
2023-03-11T13:03:17.919Z,2.70
2023-03-11T13:06:15.010Z,2.95
2023-03-11T13:09:01.647Z,5.57
2023-03-11T13:11:48.350Z,6.18
2023-03-11T13:14:35.094Z,2.25
2023-03-11T13:17:26.759Z,3.15
2023-03-11T13:20:47.585Z,2.10
2023-03-11T13:23:37.872Z,2.00
2023-03-11T13:26:33.073Z,2.30
2023-03-11T13:29:21.124Z,2.72
2023-03-11T13:32:40.575Z,2.70
2023-03-11T13:35:44.357Z,7.20
2023-03-11T13:39:03.725Z,3.45
2023-03-11T13:41:49.831Z,12.60
2023-03-11T13:44:46.154Z,3.42
2023-03-11T13:47:36.686Z,11.27
2023-03-11T13:50:43.682Z,2.83
2023-03-11T13:53:34.835Z,6.65
2023-03-11T13:56:33.300Z,11.77
2023-03-11T13:59:27.227Z,2.53
2023-03-11T14:02:19.326Z,6.72
2023-03-11T14:05:07.201Z,3.35
2023-03-11T14:07:54.013Z,4.13
2023-03-11T14:10:41.938Z,8.63
2023-03-11T14:13:38.904Z,13.60
2023-03-11T14:16:35.666Z,3.22
2023-03-11T14:19:21.182Z,3.95
2023-03-11T14:22:08.278Z,7.55
2023-03-11T14:24:53.751Z,13.23
2023-03-11T14:27:39.525Z,11.15
2023-03-11T14:30:30.152Z,6.68
2023-03-11T14:33:22.149Z,2.33
2023-03-11T14:36:13.673Z,7.32
2023-03-11T14:38:58.643Z,4.72
2023-03-11T14:41:43.943Z,8.93
2023-03-11T14:44:34.329Z,8.82
2023-03-11T14:47:30.499Z,7.28
2023-03-11T14:50:21.343Z,8.65
2023-03-11T14:53:13.837Z,5.88
2023-03-11T14:56:21.215Z,3.67
2023-03-11T14:59:15.436Z,2.70
2023-03-11T15:02:39.549Z,2.22
2023-03-11T15:05:33.596Z,1.45
2023-03-11T15:08:21.896Z,1.60
2023-03-11T15:11:14.006Z,1.95
2023-03-11T15:14:17.687Z,1.73
2023-03-11T15:17:32.870Z,1.70
2023-03-11T15:20:34.424Z,1.70
2023-03-11T15:23:22.562Z,2.20
2023-03-11T15:26:19.114Z,2.22
2023-03-11T15:29:16.687Z,1.65
2023-03-11T15:32:38.604Z,1.90
2023-03-11T15:35:28.830Z,1.48
2023-03-11T15:38:25.562Z,1.58
2023-03-11T15:41:11.206Z,1.98
2023-03-11T15:44:00.404Z,2.05
2023-03-11T15:46:47.436Z,1.70
2023-03-11T15:49:33.613Z,1.58
2023-03-11T15:52:22.140Z,1.80
2023-03-11T15:55:08.321Z,1.50
2023-03-11T15:58:04.766Z,1.52
2023-03-11T16:00:56.366Z,1.83
2023-03-11T16:03:41.715Z,1.65
2023-03-11T16:06:26.987Z,1.50
2023-03-11T16:09:15.500Z,1.80
2023-03-11T16:12:02.461Z,1.92
2023-03-11T16:14:48.995Z,1.70
2023-03-11T16:17:48.951Z,1.17
2023-03-11T16:20:44.561Z,1.70
2023-03-11T16:23:50.184Z,1.80
2023-03-11T16:29:23.114Z,1.67
2023-03-11T16:32:11.174Z,1.60
2023-03-11T16:34:56.184Z,1.60
2023-03-11T16:37:43.700Z,1.98
2023-03-11T16:40:29.915Z,1.58
2023-03-11T16:43:15.349Z,1.70
2023-03-11T16:46:00.235Z,1.48
2023-03-11T16:48:45.790Z,1.60
2023-03-11T16:51:31.206Z,1.52
2023-03-11T16:54:19.152Z,1.92
2023-03-11T16:57:04.144Z,1.85
2023-03-11T16:59:49.345Z,1.50
2023-03-11T17:02:35.399Z,1.90
2023-03-11T17:05:20.506Z,1.92
2023-03-11T17:08:08.527Z,2.10
2023-03-11T17:10:56.120Z,2.22
2023-03-11T17:13:41.564Z,2.38
2023-03-11T17:16:26.916Z,2.50
2023-03-11T17:19:15.682Z,2.20
2023-03-11T17:22:00.846Z,2.13
2023-03-11T17:24:45.715Z,2.35
2023-03-11T17:27:32.492Z,3.10
2023-03-11T17:30:35.640Z,3.42
2023-03-11T17:33:21.252Z,4.13
2023-03-11T17:36:08.894Z,3.22
2023-03-11T17:41:57.734Z,2.55
2023-03-11T17:44:51.487Z,1.98
2023-03-11T17:47:37.377Z,2.30
2023-03-11T17:50:23.705Z,2.40
2023-03-11T17:53:10.122Z,2.17
2023-03-11T17:55:55.333Z,2.10
2023-03-11T17:58:40.959Z,2.65
2023-03-11T18:01:27.937Z,5.43
2023-03-11T18:04:13.209Z,3.40
2023-03-11T18:06:58.201Z,5.90
2023-03-11T18:09:43.519Z,11.48
2023-03-11T18:12:28.435Z,5.63
2023-03-11T18:15:16.567Z,5.72
2023-03-11T18:18:02.816Z,4.18
2023-03-11T18:20:48.213Z,4.25
2023-03-11T18:23:35.114Z,3.33
2023-03-11T18:26:20.625Z,2.50
2023-03-11T18:29:05.544Z,2.20
2023-03-11T18:31:50.837Z,2.10
2023-03-11T18:34:35.990Z,2.47
2023-03-11T18:37:21.425Z,2.20
2023-03-11T18:40:07.363Z,2.35
2023-03-11T18:42:53.038Z,2.40
2023-03-11T18:45:39.484Z,2.13
2023-03-11T18:48:27.889Z,2.50
2023-03-11T18:51:13.980Z,3.20
2023-03-11T18:54:01.844Z,2.60
2023-03-11T18:56:46.983Z,2.90
2023-03-11T18:59:31.914Z,2.15
2023-03-11T19:02:18.299Z,2.20
2023-03-11T19:05:04.366Z,2.78
2023-03-11T19:07:49.532Z,2.65
2023-03-11T19:10:34.458Z,2.42
2023-03-11T19:13:20.952Z,2.70
2023-03-11T19:16:08.182Z,2.28
2023-03-11T19:18:55.052Z,2.50
2023-03-11T19:21:41.838Z,1.98
2023-03-11T19:24:26.952Z,2.28
2023-03-11T19:27:13.070Z,2.38
2023-03-11T19:29:58.189Z,2.35
2023-03-11T19:32:43.180Z,2.40
2023-03-11T19:35:29.181Z,2.20
2023-03-11T19:38:14.016Z,2.75
2023-03-11T19:41:05.078Z,3.13
2023-03-11T19:43:50.352Z,4.10
2023-03-11T19:46:36.205Z,2.90
2023-03-11T19:49:21.935Z,2.63
2023-03-11T19:52:10.061Z,2.83
2023-03-11T19:54:58.572Z,2.50
2023-03-11T19:57:43.800Z,2.63
2023-03-11T20:00:31.676Z,2.42
2023-03-11T20:03:17.634Z,2.88
2023-03-11T20:06:05.417Z,3.33
2023-03-11T20:08:51.050Z,3.67
2023-03-11T20:11:40.631Z,2.67
2023-03-11T20:14:27.853Z,2.92
2023-03-11T20:17:14.654Z,2.90
2023-03-11T20:20:02.719Z,2.80
2023-03-11T20:22:48.079Z,3.05
2023-03-11T20:25:35.771Z,3.13
2023-03-11T20:28:23.448Z,2.97
2023-03-11T20:31:14.637Z,3.83
2023-03-11T20:34:01.835Z,2.92
2023-03-11T20:36:48.903Z,3.13
2023-03-11T20:39:35.995Z,3.20
2023-03-11T20:42:24.590Z,2.88
2023-03-11T20:45:11.943Z,2.47
2023-03-11T20:47:58.007Z,2.80
2023-03-11T20:50:45.210Z,2.90
2023-03-11T20:53:31.687Z,2.97
2023-03-11T20:56:19.684Z,3.50
2023-03-11T20:59:07.715Z,2.85
2023-03-11T21:01:54.656Z,3.47
2023-03-11T21:04:42.942Z,3.20
2023-03-11T21:07:27.978Z,2.80
2023-03-11T21:10:14.510Z,2.83
2023-03-11T21:12:59.978Z,3.03
2023-03-11T21:15:47.336Z,2.97
2023-03-11T21:18:32.729Z,3.00
2023-03-11T21:21:18.855Z,2.90
2023-03-11T21:24:05.101Z,3.00
2023-03-11T21:26:50.207Z,3.05
2023-03-11T21:29:35.300Z,2.60
2023-03-11T21:32:20.420Z,2.90
2023-03-11T21:35:06.831Z,2.72
2023-03-11T21:37:55.260Z,2.88
2023-03-11T21:40:43.612Z,2.65
2023-03-11T21:43:30.329Z,3.22
2023-03-11T21:46:18.455Z,2.17
2023-03-11T21:49:03.780Z,2.33
2023-03-11T21:51:49.013Z,2.92
2023-03-11T21:54:35.644Z,3.10
2023-03-11T21:57:24.294Z,2.58
2023-03-11T22:00:11.255Z,2.47
2023-03-11T22:02:58.100Z,2.55
2023-03-11T22:05:43.476Z,2.40
2023-03-11T22:08:28.692Z,2.40
2023-03-11T22:11:19.540Z,2.50
2023-03-11T22:14:06.458Z,2.20
2023-03-11T22:16:52.416Z,2.08
2023-03-11T22:19:40.107Z,2.95
2023-03-11T22:22:26.810Z,2.45
2023-03-11T22:25:12.054Z,2.08
2023-03-11T22:27:57.543Z,2.40
2023-03-11T22:30:42.576Z,2.15
2023-03-11T22:33:27.959Z,2.05
2023-03-11T22:36:14.863Z,2.00
2023-03-11T22:39:05.125Z,2.10
2023-03-11T22:41:50.310Z,2.17
2023-03-11T22:44:35.423Z,2.13
2023-03-11T22:47:21.096Z,2.00
2023-03-11T22:50:06.149Z,2.25
2023-03-11T22:52:51.822Z,2.17
2023-03-11T22:55:44.154Z,2.17
2023-03-11T22:58:30.370Z,2.30
2023-03-11T23:01:16.492Z,2.33
2023-03-11T23:04:05.104Z,2.40
2023-03-11T23:06:50.178Z,2.13
2023-03-11T23:09:35.398Z,2.90
2023-03-11T23:12:20.589Z,2.03
2023-03-11T23:15:08.855Z,2.08
2023-03-11T23:17:54.221Z,2.08
2023-03-11T23:20:40.466Z,2.30
2023-03-11T23:23:25.604Z,1.90
2023-03-11T23:26:12.215Z,1.90
2023-03-11T23:28:59.629Z,1.85
2023-03-11T23:31:44.477Z,2.08
2023-03-11T23:34:29.494Z,2.22
2023-03-11T23:37:14.428Z,2.08
2023-03-11T23:40:00.697Z,2.00
2023-03-11T23:42:45.873Z,2.22
2023-03-11T23:45:30.825Z,2.13
2023-03-11T23:48:16.807Z,2.03
2023-03-11T23:51:02.226Z,2.20
2023-03-11T23:53:47.693Z,2.03
2023-03-11T23:56:32.925Z,2.10
2023-03-11T23:59:18.899Z,2.17
